sensor_id;sensor_type;location;lat;lon;timestamp;P1;durP1;ratioP1;P2;durP2;ratioP2
39322;SDS011;25036;53.638;10.134;2023-10-13T00:00:06;4.60;;;1.35;;
39322;SDS011;25036;53.638;10.134;2023-10-13T00:01:25;5.15;;;1.50;;
39322;SDS011;25036;53.638;10.134;2023-10-13T00:02:25;4.80;;;1.23;;
39322;SDS011;25036;53.638;10.134;2023-10-13T00:03:26;4.73;;;1.33;;
39322;SDS011;25036;53.638;10.134;2023-10-13T00:04:32;5.32;;;1.40;;
39322;SDS011;25036;53.638;10.134;2023-10-13T00:05:38;4.07;;;1.40;;
39322;SDS011;25036;53.638;10.134;2023-10-13T00:06:41;3.90;;;1.23;;
39322;SDS011;25036;53.638;10.134;2023-10-13T00:07:42;2.28;;;1.00;;
39322;SDS011;25036;53.638;10.134;2023-10-13T00:08:42;6.60;;;1.30;;
39322;SDS011;25036;53.638;10.134;2023-10-13T00:09:43;4.57;;;1.20;;
39322;SDS011;25036;53.638;10.134;2023-10-13T00:10:43;4.72;;;1.55;;
39322;SDS011;25036;53.638;10.134;2023-10-13T00:11:43;5.90;;;1.93;;
39322;SDS011;25036;53.638;10.134;2023-10-13T00:12:47;4.53;;;1.30;;
39322;SDS011;25036;53.638;10.134;2023-10-13T00:13:49;6.32;;;1.80;;
39322;SDS011;25036;53.638;10.134;2023-10-13T00:14:50;4.88;;;1.75;;
39322;SDS011;25036;53.638;10.134;2023-10-13T00:15:51;5.28;;;1.38;;
39322;SDS011;25036;53.638;10.134;2023-10-13T00:16:57;4.32;;;1.25;;
39322;SDS011;25036;53.638;10.134;2023-10-13T00:18:06;4.20;;;1.15;;
39322;SDS011;25036;53.638;10.134;2023-10-13T00:19:12;4.53;;;1.17;;
39322;SDS011;25036;53.638;10.134;2023-10-13T00:20:13;4.38;;;1.23;;
39322;SDS011;25036;53.638;10.134;2023-10-13T00:21:17;4.00;;;1.20;;
39322;SDS011;25036;53.638;10.134;2023-10-13T00:22:31;5.07;;;1.23;;
39322;SDS011;25036;53.638;10.134;2023-10-13T00:23:31;6.03;;;1.33;;
39322;SDS011;25036;53.638;10.134;2023-10-13T00:24:32;5.70;;;1.10;;
39322;SDS011;25036;53.638;10.134;2023-10-13T00:25:39;3.42;;;1.20;;
39322;SDS011;25036;53.638;10.134;2023-10-13T00:26:43;5.57;;;1.45;;
39322;SDS011;25036;53.638;10.134;2023-10-13T00:27:43;7.70;;;1.40;;
39322;SDS011;25036;53.638;10.134;2023-10-13T00:28:43;3.90;;;1.30;;
39322;SDS011;25036;53.638;10.134;2023-10-13T00:29:46;5.60;;;1.52;;
39322;SDS011;25036;53.638;10.134;2023-10-13T00:30:47;4.37;;;1.17;;
39322;SDS011;25036;53.638;10.134;2023-10-13T00:31:50;4.55;;;1.20;;
39322;SDS011;25036;53.638;10.134;2023-10-13T00:32:52;4.32;;;1.17;;
39322;SDS011;25036;53.638;10.134;2023-10-13T00:33:56;3.15;;;1.30;;
39322;SDS011;25036;53.638;10.134;2023-10-13T00:35:01;3.40;;;1.25;;
39322;SDS011;25036;53.638;10.134;2023-10-13T00:36:05;5.45;;;1.30;;
39322;SDS011;25036;53.638;10.134;2023-10-13T00:37:07;5.18;;;1.27;;
39322;SDS011;25036;53.638;10.134;2023-10-13T00:38:10;4.05;;;1.90;;
39322;SDS011;25036;53.638;10.134;2023-10-13T00:39:13;3.72;;;1.40;;
39322;SDS011;25036;53.638;10.134;2023-10-13T00:40:15;3.40;;;1.33;;
39322;SDS011;25036;53.638;10.134;2023-10-13T00:41:35;3.55;;;1.20;;
39322;SDS011;25036;53.638;10.134;2023-10-13T00:42:54;4.28;;;1.30;;
39322;SDS011;25036;53.638;10.134;2023-10-13T00:43:55;7.18;;;1.90;;
39322;SDS011;25036;53.638;10.134;2023-10-13T00:45:04;4.57;;;1.65;;
39322;SDS011;25036;53.638;10.134;2023-10-13T00:46:04;3.95;;;1.65;;
39322;SDS011;25036;53.638;10.134;2023-10-13T00:47:05;3.22;;;1.42;;
39322;SDS011;25036;53.638;10.134;2023-10-13T00:48:07;6.03;;;1.67;;
39322;SDS011;25036;53.638;10.134;2023-10-13T00:49:11;3.78;;;1.80;;
39322;SDS011;25036;53.638;10.134;2023-10-13T00:50:15;6.32;;;1.45;;
39322;SDS011;25036;53.638;10.134;2023-10-13T00:51:17;3.65;;;1.48;;
39322;SDS011;25036;53.638;10.134;2023-10-13T00:52:22;3.92;;;1.45;;
39322;SDS011;25036;53.638;10.134;2023-10-13T00:53:23;5.77;;;1.70;;
39322;SDS011;25036;53.638;10.134;2023-10-13T00:54:25;3.83;;;1.60;;
39322;SDS011;25036;53.638;10.134;2023-10-13T00:55:26;2.97;;;1.27;;
39322;SDS011;25036;53.638;10.134;2023-10-13T00:56:29;3.47;;;1.52;;
39322;SDS011;25036;53.638;10.134;2023-10-13T00:57:32;4.22;;;1.77;;
39322;SDS011;25036;53.638;10.134;2023-10-13T00:58:33;4.38;;;1.70;;
39322;SDS011;25036;53.638;10.134;2023-10-13T00:59:34;6.35;;;1.80;;
39322;SDS011;25036;53.638;10.134;2023-10-13T01:00:35;4.22;;;1.63;;
39322;SDS011;25036;53.638;10.134;2023-10-13T01:01:46;5.90;;;1.65;;
39322;SDS011;25036;53.638;10.134;2023-10-13T01:02:53;6.10;;;2.28;;
39322;SDS011;25036;53.638;10.134;2023-10-13T01:03:56;5.07;;;1.90;;
39322;SDS011;25036;53.638;10.134;2023-10-13T01:04:59;3.50;;;1.85;;
39322;SDS011;25036;53.638;10.134;2023-10-13T01:05:59;5.13;;;1.90;;
39322;SDS011;25036;53.638;10.134;2023-10-13T01:06:59;4.65;;;1.77;;
39322;SDS011;25036;53.638;10.134;2023-10-13T01:08:00;5.73;;;1.50;;
39322;SDS011;25036;53.638;10.134;2023-10-13T01:09:08;8.10;;;2.20;;
39322;SDS011;25036;53.638;10.134;2023-10-13T01:10:12;7.63;;;2.10;;
39322;SDS011;25036;53.638;10.134;2023-10-13T01:11:15;7.88;;;2.13;;
39322;SDS011;25036;53.638;10.134;2023-10-13T01:12:15;7.38;;;2.30;;
39322;SDS011;25036;53.638;10.134;2023-10-13T01:13:15;6.63;;;2.30;;
39322;SDS011;25036;53.638;10.134;2023-10-13T01:14:17;5.03;;;1.90;;
39322;SDS011;25036;53.638;10.134;2023-10-13T01:15:18;6.55;;;2.05;;
39322;SDS011;25036;53.638;10.134;2023-10-13T01:16:21;7.13;;;2.28;;
39322;SDS011;25036;53.638;10.134;2023-10-13T01:17:21;6.17;;;2.53;;
39322;SDS011;25036;53.638;10.134;2023-10-13T01:18:23;5.68;;;2.25;;
39322;SDS011;25036;53.638;10.134;2023-10-13T01:19:28;5.68;;;2.03;;
39322;SDS011;25036;53.638;10.134;2023-10-13T01:20:29;10.43;;;2.15;;
39322;SDS011;25036;53.638;10.134;2023-10-13T01:21:29;10.33;;;2.73;;
39322;SDS011;25036;53.638;10.134;2023-10-13T01:22:29;5.82;;;2.75;;
39322;SDS011;25036;53.638;10.134;2023-10-13T01:23:31;5.63;;;2.45;;
39322;SDS011;25036;53.638;10.134;2023-10-13T01:24:38;8.40;;;3.20;;
39322;SDS011;25036;53.638;10.134;2023-10-13T01:25:38;6.53;;;2.43;;
39322;SDS011;25036;53.638;10.134;2023-10-13T01:26:38;10.07;;;3.13;;
39322;SDS011;25036;53.638;10.134;2023-10-13T01:27:39;8.50;;;2.70;;
39322;SDS011;25036;53.638;10.134;2023-10-13T01:28:40;8.43;;;2.78;;
39322;SDS011;25036;53.638;10.134;2023-10-13T01:29:47;6.93;;;2.83;;
39322;SDS011;25036;53.638;10.134;2023-10-13T01:31:05;9.13;;;3.28;;
39322;SDS011;25036;53.638;10.134;2023-10-13T01:32:08;5.18;;;2.75;;
39322;SDS011;25036;53.638;10.134;2023-10-13T01:33:12;10.27;;;3.00;;
39322;SDS011;25036;53.638;10.134;2023-10-13T01:34:13;8.83;;;3.33;;
39322;SDS011;25036;53.638;10.134;2023-10-13T01:35:14;11.13;;;3.63;;
39322;SDS011;25036;53.638;10.134;2023-10-13T01:36:18;6.22;;;3.10;;
39322;SDS011;25036;53.638;10.134;2023-10-13T01:37:18;9.93;;;4.53;;
39322;SDS011;25036;53.638;10.134;2023-10-13T01:38:19;7.18;;;3.10;;
39322;SDS011;25036;53.638;10.134;2023-10-13T01:39:20;13.85;;;3.20;;
39322;SDS011;25036;53.638;10.134;2023-10-13T01:40:20;15.10;;;3.90;;
39322;SDS011;25036;53.638;10.134;2023-10-13T01:41:21;10.55;;;3.60;;
39322;SDS011;25036;53.638;10.134;2023-10-13T01:42:21;9.32;;;3.70;;
39322;SDS011;25036;53.638;10.134;2023-10-13T01:43:22;13.60;;;4.00;;
39322;SDS011;25036;53.638;10.134;2023-10-13T01:44:23;10.35;;;3.80;;
39322;SDS011;25036;53.638;10.134;2023-10-13T01:45:23;12.00;;;4.63;;
39322;SDS011;25036;53.638;10.134;2023-10-13T01:46:28;12.13;;;4.82;;
39322;SDS011;25036;53.638;10.134;2023-10-13T01:47:28;9.33;;;4.50;;
39322;SDS011;25036;53.638;10.134;2023-10-13T01:48:29;11.20;;;5.33;;
39322;SDS011;25036;53.638;10.134;2023-10-13T01:49:32;12.85;;;4.28;;
39322;SDS011;25036;53.638;10.134;2023-10-13T01:50:41;9.35;;;4.32;;
39322;SDS011;25036;53.638;10.134;2023-10-13T01:51:41;9.48;;;3.92;;
39322;SDS011;25036;53.638;10.134;2023-10-13T01:52:42;11.15;;;4.40;;
39322;SDS011;25036;53.638;10.134;2023-10-13T01:53:42;10.73;;;4.73;;
39322;SDS011;25036;53.638;10.134;2023-10-13T01:54:44;9.20;;;4.32;;
39322;SDS011;25036;53.638;10.134;2023-10-13T01:55:44;12.52;;;4.50;;
39322;SDS011;25036;53.638;10.134;2023-10-13T01:56:45;8.93;;;4.20;;
39322;SDS011;25036;53.638;10.134;2023-10-13T01:57:45;10.20;;;4.53;;
39322;SDS011;25036;53.638;10.134;2023-10-13T01:58:47;11.85;;;4.68;;
39322;SDS011;25036;53.638;10.134;2023-10-13T01:59:48;11.47;;;4.60;;
39322;SDS011;25036;53.638;10.134;2023-10-13T02:00:48;13.38;;;5.20;;
39322;SDS011;25036;53.638;10.134;2023-10-13T02:01:49;10.93;;;5.38;;
39322;SDS011;25036;53.638;10.134;2023-10-13T02:02:51;10.77;;;5.22;;
39322;SDS011;25036;53.638;10.134;2023-10-13T02:03:53;9.55;;;5.45;;
39322;SDS011;25036;53.638;10.134;2023-10-13T02:05:01;11.63;;;5.15;;
39322;SDS011;25036;53.638;10.134;2023-10-13T02:06:02;12.32;;;5.28;;
39322;SDS011;25036;53.638;10.134;2023-10-13T02:07:04;8.90;;;5.10;;
39322;SDS011;25036;53.638;10.134;2023-10-13T02:08:09;13.35;;;5.35;;
39322;SDS011;25036;53.638;10.134;2023-10-13T02:09:10;18.75;;;6.88;;
39322;SDS011;25036;53.638;10.134;2023-10-13T02:10:12;18.05;;;6.85;;
39322;SDS011;25036;53.638;10.134;2023-10-13T02:11:13;13.77;;;6.25;;
39322;SDS011;25036;53.638;10.134;2023-10-13T02:12:15;13.57;;;6.05;;
39322;SDS011;25036;53.638;10.134;2023-10-13T02:13:16;11.10;;;5.90;;
39322;SDS011;25036;53.638;10.134;2023-10-13T02:14:17;12.13;;;6.38;;
39322;SDS011;25036;53.638;10.134;2023-10-13T02:15:18;10.43;;;5.88;;
39322;SDS011;25036;53.638;10.134;2023-10-13T02:16:22;12.65;;;7.05;;
39322;SDS011;25036;53.638;10.134;2023-10-13T02:17:25;11.57;;;6.50;;
39322;SDS011;25036;53.638;10.134;2023-10-13T02:18:26;12.38;;;6.28;;
39322;SDS011;25036;53.638;10.134;2023-10-13T02:19:26;12.10;;;7.07;;
39322;SDS011;25036;53.638;10.134;2023-10-13T02:20:28;13.30;;;6.70;;
39322;SDS011;25036;53.638;10.134;2023-10-13T02:21:34;15.00;;;6.90;;
39322;SDS011;25036;53.638;10.134;2023-10-13T02:22:39;14.55;;;8.15;;
39322;SDS011;25036;53.638;10.134;2023-10-13T02:23:40;13.80;;;6.72;;
39322;SDS011;25036;53.638;10.134;2023-10-13T02:24:59;18.52;;;7.75;;
39322;SDS011;25036;53.638;10.134;2023-10-13T02:26:06;15.57;;;6.80;;
39322;SDS011;25036;53.638;10.134;2023-10-13T02:27:30;12.35;;;6.40;;
39322;SDS011;25036;53.638;10.134;2023-10-13T02:28:40;14.40;;;6.90;;
39322;SDS011;25036;53.638;10.134;2023-10-13T02:29:40;13.20;;;6.90;;
39322;SDS011;25036;53.638;10.134;2023-10-13T02:30:41;11.60;;;5.97;;
39322;SDS011;25036;53.638;10.134;2023-10-13T02:31:44;15.25;;;7.20;;
39322;SDS011;25036;53.638;10.134;2023-10-13T02:32:54;13.95;;;7.45;;
39322;SDS011;25036;53.638;10.134;2023-10-13T02:33:55;15.68;;;7.03;;
39322;SDS011;25036;53.638;10.134;2023-10-13T02:34:55;16.02;;;7.90;;
39322;SDS011;25036;53.638;10.134;2023-10-13T02:36:05;15.32;;;7.13;;
39322;SDS011;25036;53.638;10.134;2023-10-13T02:37:05;16.63;;;7.30;;
39322;SDS011;25036;53.638;10.134;2023-10-13T02:38:06;14.65;;;6.88;;
39322;SDS011;25036;53.638;10.134;2023-10-13T02:39:11;15.18;;;6.68;;
39322;SDS011;25036;53.638;10.134;2023-10-13T02:40:13;16.23;;;7.68;;
39322;SDS011;25036;53.638;10.134;2023-10-13T02:41:15;12.73;;;7.33;;
39322;SDS011;25036;53.638;10.134;2023-10-13T02:42:27;14.27;;;7.45;;
39322;SDS011;25036;53.638;10.134;2023-10-13T02:43:28;12.90;;;6.70;;
39322;SDS011;25036;53.638;10.134;2023-10-13T02:44:33;14.02;;;7.50;;
39322;SDS011;25036;53.638;10.134;2023-10-13T02:45:36;14.00;;;7.68;;
39322;SDS011;25036;53.638;10.134;2023-10-13T02:46:36;15.00;;;7.97;;
39322;SDS011;25036;53.638;10.134;2023-10-13T02:47:39;15.43;;;7.95;;
39322;SDS011;25036;53.638;10.134;2023-10-13T02:48:39;14.57;;;8.00;;
39322;SDS011;25036;53.638;10.134;2023-10-13T02:49:40;17.08;;;7.93;;
39322;SDS011;25036;53.638;10.134;2023-10-13T02:50:43;19.77;;;8.50;;
39322;SDS011;25036;53.638;10.134;2023-10-13T02:51:45;18.17;;;8.18;;
39322;SDS011;25036;53.638;10.134;2023-10-13T02:52:45;16.83;;;7.57;;
39322;SDS011;25036;53.638;10.134;2023-10-13T02:53:49;15.43;;;7.53;;
39322;SDS011;25036;53.638;10.134;2023-10-13T02:54:50;15.83;;;7.50;;
39322;SDS011;25036;53.638;10.134;2023-10-13T02:55:55;15.85;;;7.80;;
39322;SDS011;25036;53.638;10.134;2023-10-13T02:56:57;13.63;;;8.43;;
39322;SDS011;25036;53.638;10.134;2023-10-13T02:57:57;14.77;;;8.10;;
39322;SDS011;25036;53.638;10.134;2023-10-13T02:58:57;17.07;;;8.90;;
39322;SDS011;25036;53.638;10.134;2023-10-13T02:59:57;17.73;;;8.93;;
39322;SDS011;25036;53.638;10.134;2023-10-13T03:00:58;11.50;;;7.43;;
39322;SDS011;25036;53.638;10.134;2023-10-13T03:01:59;16.30;;;8.07;;
39322;SDS011;25036;53.638;10.134;2023-10-13T03:02:59;18.90;;;8.27;;
39322;SDS011;25036;53.638;10.134;2023-10-13T03:04:00;15.57;;;8.57;;
39322;SDS011;25036;53.638;10.134;2023-10-13T03:05:00;15.55;;;8.20;;
39322;SDS011;25036;53.638;10.134;2023-10-13T03:06:08;20.38;;;8.68;;
39322;SDS011;25036;53.638;10.134;2023-10-13T03:07:11;13.50;;;7.65;;
39322;SDS011;25036;53.638;10.134;2023-10-13T03:08:15;15.73;;;7.72;;
39322;SDS011;25036;53.638;10.134;2023-10-13T03:09:25;15.88;;;8.30;;
39322;SDS011;25036;53.638;10.134;2023-10-13T03:10:26;14.60;;;8.00;;
39322;SDS011;25036;53.638;10.134;2023-10-13T03:11:29;16.75;;;8.50;;
39322;SDS011;25036;53.638;10.134;2023-10-13T03:12:33;14.30;;;7.13;;
39322;SDS011;25036;53.638;10.134;2023-10-13T03:13:33;18.15;;;8.55;;
39322;SDS011;25036;53.638;10.134;2023-10-13T03:14:33;17.03;;;8.03;;
39322;SDS011;25036;53.638;10.134;2023-10-13T03:15:34;13.70;;;7.60;;
39322;SDS011;25036;53.638;10.134;2023-10-13T03:16:35;12.57;;;7.45;;
39322;SDS011;25036;53.638;10.134;2023-10-13T03:17:36;15.27;;;7.78;;
39322;SDS011;25036;53.638;10.134;2023-10-13T03:18:37;13.30;;;7.70;;
39322;SDS011;25036;53.638;10.134;2023-10-13T03:19:38;17.75;;;7.55;;
39322;SDS011;25036;53.638;10.134;2023-10-13T03:20:44;14.18;;;7.97;;
39322;SDS011;25036;53.638;10.134;2023-10-13T03:21:44;14.30;;;7.35;;
39322;SDS011;25036;53.638;10.134;2023-10-13T03:22:46;14.25;;;7.55;;
39322;SDS011;25036;53.638;10.134;2023-10-13T03:23:46;12.70;;;7.37;;
39322;SDS011;25036;53.638;10.134;2023-10-13T03:24:47;15.68;;;8.75;;
39322;SDS011;25036;53.638;10.134;2023-10-13T03:25:47;15.17;;;8.53;;
39322;SDS011;25036;53.638;10.134;2023-10-13T03:26:50;11.88;;;6.82;;
39322;SDS011;25036;53.638;10.134;2023-10-13T03:27:52;13.50;;;7.53;;
39322;SDS011;25036;53.638;10.134;2023-10-13T03:28:52;15.37;;;8.37;;
39322;SDS011;25036;53.638;10.134;2023-10-13T03:29:53;13.27;;;7.35;;
39322;SDS011;25036;53.638;10.134;2023-10-13T03:31:00;13.27;;;8.18;;
39322;SDS011;25036;53.638;10.134;2023-10-13T03:32:01;13.30;;;7.82;;
39322;SDS011;25036;53.638;10.134;2023-10-13T03:33:11;14.80;;;7.55;;
39322;SDS011;25036;53.638;10.134;2023-10-13T03:34:25;13.88;;;7.75;;
39322;SDS011;25036;53.638;10.134;2023-10-13T03:35:29;14.23;;;7.60;;
39322;SDS011;25036;53.638;10.134;2023-10-13T03:36:37;15.77;;;7.65;;
39322;SDS011;25036;53.638;10.134;2023-10-13T03:37:56;16.05;;;7.78;;
39322;SDS011;25036;53.638;10.134;2023-10-13T03:38:57;13.35;;;6.80;;
39322;SDS011;25036;53.638;10.134;2023-10-13T03:39:57;14.30;;;7.17;;
39322;SDS011;25036;53.638;10.134;2023-10-13T03:40:59;12.50;;;7.18;;
39322;SDS011;25036;53.638;10.134;2023-10-13T03:42:20;9.63;;;6.53;;
39322;SDS011;25036;53.638;10.134;2023-10-13T03:43:21;14.80;;;7.43;;
39322;SDS011;25036;53.638;10.134;2023-10-13T03:44:22;13.38;;;7.03;;
39322;SDS011;25036;53.638;10.134;2023-10-13T03:45:23;11.73;;;7.40;;
39322;SDS011;25036;53.638;10.134;2023-10-13T03:46:24;13.80;;;7.75;;
39322;SDS011;25036;53.638;10.134;2023-10-13T03:47:26;11.15;;;6.50;;
39322;SDS011;25036;53.638;10.134;2023-10-13T03:48:26;13.87;;;6.93;;
39322;SDS011;25036;53.638;10.134;2023-10-13T03:49:26;11.60;;;7.07;;
39322;SDS011;25036;53.638;10.134;2023-10-13T03:50:29;9.48;;;6.40;;
39322;SDS011;25036;53.638;10.134;2023-10-13T03:51:29;8.90;;;5.43;;
39322;SDS011;25036;53.638;10.134;2023-10-13T03:52:33;11.40;;;6.03;;
39322;SDS011;25036;53.638;10.134;2023-10-13T03:53:36;10.35;;;6.10;;
39322;SDS011;25036;53.638;10.134;2023-10-13T03:54:50;9.38;;;5.95;;
39322;SDS011;25036;53.638;10.134;2023-10-13T03:55:51;9.07;;;5.45;;
39322;SDS011;25036;53.638;10.134;2023-10-13T03:57:07;10.70;;;5.95;;
39322;SDS011;25036;53.638;10.134;2023-10-13T03:58:14;8.88;;;5.57;;
39322;SDS011;25036;53.638;10.134;2023-10-13T03:59:14;8.50;;;5.13;;
39322;SDS011;25036;53.638;10.134;2023-10-13T04:00:17;7.20;;;4.97;;
39322;SDS011;25036;53.638;10.134;2023-10-13T04:01:30;6.70;;;4.70;;
39322;SDS011;25036;53.638;10.134;2023-10-13T04:02:49;6.78;;;4.30;;
39322;SDS011;25036;53.638;10.134;2023-10-13T04:04:03;5.90;;;4.20;;
39322;SDS011;25036;53.638;10.134;2023-10-13T04:05:04;5.38;;;4.10;;
39322;SDS011;25036;53.638;10.134;2023-10-13T04:06:09;7.85;;;4.30;;
39322;SDS011;25036;53.638;10.134;2023-10-13T04:07:16;5.68;;;3.90;;
39322;SDS011;25036;53.638;10.134;2023-10-13T04:08:25;6.07;;;4.28;;
39322;SDS011;25036;53.638;10.134;2023-10-13T04:09:28;5.75;;;3.72;;
39322;SDS011;25036;53.638;10.134;2023-10-13T04:10:29;6.10;;;3.70;;
39322;SDS011;25036;53.638;10.134;2023-10-13T04:11:58;6.28;;;3.80;;
39322;SDS011;25036;53.638;10.134;2023-10-13T04:13:01;4.07;;;3.60;;
39322;SDS011;25036;53.638;10.134;2023-10-13T04:14:31;4.65;;;3.60;;
39322;SDS011;25036;53.638;10.134;2023-10-13T04:15:50;4.45;;;3.50;;
39322;SDS011;25036;53.638;10.134;2023-10-13T04:17:08;4.32;;;3.28;;
39322;SDS011;25036;53.638;10.134;2023-10-13T04:18:14;5.10;;;3.70;;
39322;SDS011;25036;53.638;10.134;2023-10-13T04:19:30;5.10;;;3.90;;
39322;SDS011;25036;53.638;10.134;2023-10-13T04:20:36;4.72;;;3.58;;
39322;SDS011;25036;53.638;10.134;2023-10-13T04:21:38;6.00;;;3.85;;
39322;SDS011;25036;53.638;10.134;2023-10-13T04:22:42;6.17;;;3.80;;
39322;SDS011;25036;53.638;10.134;2023-10-13T04:23:48;5.38;;;4.38;;
39322;SDS011;25036;53.638;10.134;2023-10-13T04:25:07;5.07;;;3.88;;
39322;SDS011;25036;53.638;10.134;2023-10-13T04:26:27;6.90;;;4.47;;
39322;SDS011;25036;53.638;10.134;2023-10-13T04:27:44;7.20;;;4.38;;
39322;SDS011;25036;53.638;10.134;2023-10-13T04:28:54;7.97;;;5.00;;
39322;SDS011;25036;53.638;10.134;2023-10-13T04:29:56;7.75;;;4.63;;
39322;SDS011;25036;53.638;10.134;2023-10-13T04:30:56;8.17;;;4.83;;
39322;SDS011;25036;53.638;10.134;2023-10-13T04:31:56;7.77;;;4.83;;
39322;SDS011;25036;53.638;10.134;2023-10-13T04:33:00;6.68;;;5.03;;
39322;SDS011;25036;53.638;10.134;2023-10-13T04:34:17;7.32;;;5.38;;
39322;SDS011;25036;53.638;10.134;2023-10-13T04:35:19;6.15;;;4.68;;
39322;SDS011;25036;53.638;10.134;2023-10-13T04:36:21;6.90;;;5.22;;
39322;SDS011;25036;53.638;10.134;2023-10-13T04:37:27;6.60;;;5.28;;
39322;SDS011;25036;53.638;10.134;2023-10-13T04:38:33;7.15;;;5.43;;
39322;SDS011;25036;53.638;10.134;2023-10-13T04:39:50;9.20;;;5.90;;
39322;SDS011;25036;53.638;10.134;2023-10-13T04:40:57;7.05;;;5.70;;
39322;SDS011;25036;53.638;10.134;2023-10-13T04:42:02;6.57;;;5.82;;
39322;SDS011;25036;53.638;10.134;2023-10-13T04:43:13;9.10;;;7.03;;
39322;SDS011;25036;53.638;10.134;2023-10-13T04:44:32;8.05;;;6.60;;
39322;SDS011;25036;53.638;10.134;2023-10-13T04:45:41;8.50;;;6.65;;
39322;SDS011;25036;53.638;10.134;2023-10-13T04:46:54;8.95;;;6.70;;
39322;SDS011;25036;53.638;10.134;2023-10-13T04:47:54;8.93;;;6.63;;
39322;SDS011;25036;53.638;10.134;2023-10-13T04:48:58;9.13;;;6.55;;
39322;SDS011;25036;53.638;10.134;2023-10-13T04:50:01;13.63;;;6.97;;
39322;SDS011;25036;53.638;10.134;2023-10-13T04:51:11;9.45;;;7.00;;
39322;SDS011;25036;53.638;10.134;2023-10-13T04:52:30;12.90;;;7.80;;
39322;SDS011;25036;53.638;10.134;2023-10-13T04:53:53;9.68;;;7.07;;
39322;SDS011;25036;53.638;10.134;2023-10-13T04:55:25;12.38;;;6.90;;
39322;SDS011;25036;53.638;10.134;2023-10-13T04:57:00;8.77;;;6.97;;
39322;SDS011;25036;53.638;10.134;2023-10-13T04:58:00;10.98;;;7.35;;
39322;SDS011;25036;53.638;10.134;2023-10-13T05:00:29;10.07;;;7.63;;
39322;SDS011;25036;53.638;10.134;2023-10-13T05:01:48;9.65;;;7.70;;
39322;SDS011;25036;53.638;10.134;2023-10-13T05:02:57;10.88;;;7.82;;
39322;SDS011;25036;53.638;10.134;2023-10-13T05:04:00;11.95;;;8.23;;
39322;SDS011;25036;53.638;10.134;2023-10-13T05:05:19;11.40;;;8.35;;
39322;SDS011;25036;53.638;10.134;2023-10-13T05:06:42;12.85;;;8.70;;
39322;SDS011;25036;53.638;10.134;2023-10-13T05:07:45;12.23;;;9.82;;
39322;SDS011;25036;53.638;10.134;2023-10-13T05:09:04;12.57;;;8.57;;
39322;SDS011;25036;53.638;10.134;2023-10-13T05:10:22;12.23;;;8.23;;
39322;SDS011;25036;53.638;10.134;2023-10-13T05:11:41;13.30;;;8.88;;
39322;SDS011;25036;53.638;10.134;2023-10-13T05:13:00;11.93;;;8.73;;
39322;SDS011;25036;53.638;10.134;2023-10-13T05:14:19;9.18;;;7.88;;
39322;SDS011;25036;53.638;10.134;2023-10-13T05:15:44;11.52;;;8.77;;
39322;SDS011;25036;53.638;10.134;2023-10-13T05:17:05;12.77;;;9.32;;
39322;SDS011;25036;53.638;10.134;2023-10-13T05:18:23;12.05;;;9.38;;
39322;SDS011;25036;53.638;10.134;2023-10-13T05:19:42;11.32;;;9.18;;
39322;SDS011;25036;53.638;10.134;2023-10-13T05:21:01;12.10;;;9.68;;
39322;SDS011;25036;53.638;10.134;2023-10-13T05:22:20;14.00;;;9.57;;
39322;SDS011;25036;53.638;10.134;2023-10-13T05:23:39;13.10;;;9.05;;
39322;SDS011;25036;53.638;10.134;2023-10-13T05:24:57;10.75;;;9.07;;
39322;SDS011;25036;53.638;10.134;2023-10-13T05:26:16;11.63;;;9.57;;
39322;SDS011;25036;53.638;10.134;2023-10-13T05:27:46;12.52;;;9.98;;
39322;SDS011;25036;53.638;10.134;2023-10-13T05:29:21;14.93;;;10.48;;
39322;SDS011;25036;53.638;10.134;2023-10-13T05:30:40;14.27;;;10.57;;
39322;SDS011;25036;53.638;10.134;2023-10-13T05:31:59;12.27;;;10.05;;
39322;SDS011;25036;53.638;10.134;2023-10-13T05:33:17;14.30;;;10.55;;
39322;SDS011;25036;53.638;10.134;2023-10-13T05:34:36;15.00;;;10.18;;
39322;SDS011;25036;53.638;10.134;2023-10-13T05:35:55;13.23;;;10.25;;
39322;SDS011;25036;53.638;10.134;2023-10-13T05:37:14;12.27;;;10.45;;
39322;SDS011;25036;53.638;10.134;2023-10-13T05:38:34;14.15;;;10.20;;
39322;SDS011;25036;53.638;10.134;2023-10-13T05:39:53;15.85;;;10.57;;
39322;SDS011;25036;53.638;10.134;2023-10-13T05:41:12;15.15;;;10.98;;
39322;SDS011;25036;53.638;10.134;2023-10-13T05:42:31;12.80;;;9.65;;
39322;SDS011;25036;53.638;10.134;2023-10-13T05:43:50;15.40;;;11.15;;
39322;SDS011;25036;53.638;10.134;2023-10-13T05:45:09;13.85;;;10.60;;
39322;SDS011;25036;53.638;10.134;2023-10-13T05:46:18;13.65;;;11.05;;
39322;SDS011;25036;53.638;10.134;2023-10-13T05:47:27;14.90;;;11.27;;
39322;SDS011;25036;53.638;10.134;2023-10-13T05:48:42;13.63;;;11.10;;
39322;SDS011;25036;53.638;10.134;2023-10-13T05:50:02;15.30;;;11.60;;
39322;SDS011;25036;53.638;10.134;2023-10-13T05:51:13;13.73;;;10.75;;
39322;SDS011;25036;53.638;10.134;2023-10-13T05:52:32;14.38;;;11.20;;
39322;SDS011;25036;53.638;10.134;2023-10-13T05:53:51;13.80;;;11.32;;
39322;SDS011;25036;53.638;10.134;2023-10-13T05:55:09;14.75;;;11.50;;
39322;SDS011;25036;53.638;10.134;2023-10-13T05:56:28;14.80;;;11.77;;
39322;SDS011;25036;53.638;10.134;2023-10-13T05:57:47;16.17;;;10.98;;
39322;SDS011;25036;53.638;10.134;2023-10-13T05:59:05;15.32;;;11.30;;
39322;SDS011;25036;53.638;10.134;2023-10-13T06:00:24;18.13;;;11.57;;
39322;SDS011;25036;53.638;10.134;2023-10-13T06:01:43;15.77;;;10.95;;
39322;SDS011;25036;53.638;10.134;2023-10-13T06:03:02;14.98;;;11.65;;
39322;SDS011;25036;53.638;10.134;2023-10-13T06:04:21;15.48;;;11.68;;
39322;SDS011;25036;53.638;10.134;2023-10-13T06:05:39;15.70;;;11.50;;
39322;SDS011;25036;53.638;10.134;2023-10-13T06:06:58;15.05;;;12.25;;
39322;SDS011;25036;53.638;10.134;2023-10-13T06:08:31;14.82;;;12.32;;
39322;SDS011;25036;53.638;10.134;2023-10-13T06:09:57;16.05;;;12.48;;
39322;SDS011;25036;53.638;10.134;2023-10-13T06:11:16;16.13;;;11.80;;
39322;SDS011;25036;53.638;10.134;2023-10-13T06:12:34;15.55;;;12.43;;
39322;SDS011;25036;53.638;10.134;2023-10-13T06:13:53;14.85;;;12.30;;
39322;SDS011;25036;53.638;10.134;2023-10-13T06:15:12;15.38;;;11.88;;
39322;SDS011;25036;53.638;10.134;2023-10-13T06:16:45;15.57;;;11.88;;
39322;SDS011;25036;53.638;10.134;2023-10-13T06:18:03;18.42;;;11.82;;
39322;SDS011;25036;53.638;10.134;2023-10-13T06:19:22;16.85;;;12.43;;
39322;SDS011;25036;53.638;10.134;2023-10-13T06:20:41;18.15;;;12.82;;
39322;SDS011;25036;53.638;10.134;2023-10-13T06:22:00;17.10;;;12.52;;
39322;SDS011;25036;53.638;10.134;2023-10-13T06:23:18;16.75;;;13.30;;
39322;SDS011;25036;53.638;10.134;2023-10-13T06:24:37;16.75;;;13.05;;
39322;SDS011;25036;53.638;10.134;2023-10-13T06:25:56;16.48;;;13.23;;
39322;SDS011;25036;53.638;10.134;2023-10-13T06:27:15;16.27;;;11.90;;
39322;SDS011;25036;53.638;10.134;2023-10-13T06:28:34;16.15;;;11.93;;
39322;SDS011;25036;53.638;10.134;2023-10-13T06:29:40;18.15;;;13.65;;
39322;SDS011;25036;53.638;10.134;2023-10-13T06:30:41;19.70;;;12.60;;
39322;SDS011;25036;53.638;10.134;2023-10-13T06:31:41;19.37;;;14.17;;
39322;SDS011;25036;53.638;10.134;2023-10-13T06:32:46;16.35;;;12.93;;
39322;SDS011;25036;53.638;10.134;2023-10-13T06:33:46;17.05;;;13.40;;
39322;SDS011;25036;53.638;10.134;2023-10-13T06:34:47;17.58;;;14.02;;
39322;SDS011;25036;53.638;10.134;2023-10-13T06:35:50;17.00;;;13.38;;